KCVG

Cincinnati / Northern Kentucky International Airport

Covington, Kentucky, USA
KCVG 182343Z 1900/2006 08008KT P6SM OVC015 FM191000 08012KT 4SM -RA OVC009 FM192300 02016G25KT 3SM -FZRA OVC009 FM200100 01025G35KT 1/2SM SN OVC009 FM200500 01018G32KT 1SM -SN OVC012 WS020/03050KT
Issued Valid From Valid To
Jan-18 @ 23:43 UTC
(3 hours ago)
Jan-19 @ 00:00 UTC
(3 hours ago)
Jan-20 @ 06:00 UTC
(-1 days ago)
Jan-19 @ 00:00 to Jan-19 @ 10:00
KCVG 182343Z 1900/2006 08008KT P6SM OVC015
Wind Visibility Clouds
80° at 8 knots Greater than 6 miles
  • Overcast at 1,500' AGL
From Jan-19 @ 10:00 to Jan-19 @ 23:00
FM191000 08012KT 4SM -RA OVC009
Wind Visibility Clouds Conditions
80° at 12 knots 4 miles
  • Overcast at 900' AGL
  • Light Rain
From Jan-19 @ 23:00 to Jan-20 @ 01:00
FM192300 02016G25KT 3SM -FZRA OVC009
Wind Visibility Clouds Conditions
20° at 16 knots
 Gusting to 25 knots
3 miles
  • Overcast at 900' AGL
  • Light Freezing
  • Light Rain
From Jan-20 @ 01:00 to Jan-20 @ 05:00
FM200100 01025G35KT 1/2SM SN OVC009
Wind Visibility Clouds Conditions
10° at 25 knots
 Gusting to 35 knots
1/2 miles
  • Overcast at 900' AGL
  • Snow
From Jan-20 @ 05:00 to Jan-20 @ 06:00
FM200500 01018G32KT 1SM -SN OVC012 WS020/03050KT
Wind Visibility Clouds Conditions
10° at 18 knots
 Gusting to 32 knots
 Wind shear 2,000' AGL from 30° at 50 knots
1 miles
  • Overcast at 1,200' AGL
  • Light Snow
KCVG 182343Z 1900/2006 08008KT P6SM OVC015 FM191000 08012KT 4SM -RA OVC009 FM192300 02016G25KT 3SM -FZRA OVC009 FM200100 01025G35KT 1/2SM SN OVC009 FM200500 01018G32KT 1SM -SN OVC012 WS020/03050KT
Issued Jan-18 @ 23:43 UTC
(3 hours ago)
Valid From Jan-19 @ 00:00 UTC
(3 hours ago)
Valid To Jan-20 @ 06:00 UTC
(-1 days ago)
Jan-19 @ 00:00 - Jan-19 @ 10:00
Wind Visibility
80° at 8 knots Greater than 6 miles
Clouds
  • Overcast at 1,500' AGL
From Jan-19 @ 10:00 - Jan-19 @ 23:00
Wind Visibility
80° at 12 knots 4 miles
Clouds
  • Overcast at 900' AGL
Conditions
  • Light Rain
From Jan-19 @ 23:00 - Jan-20 @ 01:00
Wind Visibility
20° at 16 knots
 Gusting to 25 knots
3 miles
Clouds
  • Overcast at 900' AGL
Conditions
  • Light Freezing
  • Light Rain
From Jan-20 @ 01:00 - Jan-20 @ 05:00
Wind Visibility
10° at 25 knots
 Gusting to 35 knots
1/2 miles
Clouds
  • Overcast at 900' AGL
Conditions
  • Snow
From Jan-20 @ 05:00 - Jan-20 @ 06:00
Wind Visibility
10° at 18 knots
 Gusting to 32 knots
1 miles
Clouds
  • Overcast at 1,200' AGL
Conditions
  • Light Snow